Time;durP1;ratioP1;P1;durP2;ratioP2;P2;SDS_P1;SDS_P2;PMS_P1;PMS_P2;Temp;Humidity;BMP_temperature;BMP_pressure;BME280_temperature;BME280_humidity;BME280_pressure;Samples;Min_cycle;Max_cycle;Signal;HPM_P1;HPM_P2
2021/05/31 00:01:26;;;;;;;3.65;1.50;;;;;;;8.06;94.37;93128.45;1779333;79;21147;-76
2021/05/31 00:03:53;;;;;;;1.52;1.42;;;;;;;8.06;94.50;93125.75;1803219;79;21045;-77
2021/05/31 00:06:20;;;;;;;3.80;1.40;;;;;;;8.00;94.49;93126.70;1806468;75;21620;-76
2021/05/31 00:08:49;;;;;;;2.00;1.80;;;;;;;8.01;94.99;93120.70;1803938;79;21016;-77
2021/05/31 00:11:17;;;;;;;4.35;3.67;;;;;;;8.04;95.10;93121.28;1818025;76;21055;-76
2021/05/31 00:13:45;;;;;;;3.15;2.85;;;;;;;8.03;95.03;93128.64;1842204;77;21448;-76
2021/05/31 00:16:11;;;;;;;2.22;2.12;;;;;;;8.02;94.89;93127.69;1837135;77;21056;-76
2021/05/31 00:18:39;;;;;;;2.72;2.10;;;;;;;7.96;94.81;93129.21;1837515;77;21131;-76
2021/05/31 00:21:05;;;;;;;1.60;1.50;;;;;;;7.88;95.00;93128.43;1791347;78;21146;-76
2021/05/31 00:23:32;;;;;;;2.40;2.20;;;;;;;7.85;95.38;93124.36;1789536;79;20973;-77
2021/05/31 00:25:59;;;;;;;3.42;3.02;;;;;;;7.87;95.83;93124.77;1803494;79;21034;-78
2021/05/31 00:28:27;;;;;;;2.70;2.47;;;;;;;7.90;96.01;93125.33;1804075;79;21033;-77
2021/05/31 00:30:54;;;;;;;2.70;2.50;;;;;;;7.91;96.19;93116.84;1804436;79;21068;-76
2021/05/31 00:33:21;;;;;;;2.60;2.40;;;;;;;7.94;96.40;93114.72;1803410;79;21662;-78
2021/05/31 00:35:49;;;;;;;2.62;2.33;;;;;;;8.01;96.46;93116.64;1803295;79;21080;-77
2021/05/31 00:38:15;;;;;;;2.20;2.10;;;;;;;8.03;96.46;93118.39;1803701;79;21644;-75
2021/05/31 00:40:42;;;;;;;2.12;1.95;;;;;;;8.08;96.60;93111.81;1802402;79;21073;-76
2021/05/31 00:43:08;;;;;;;2.12;1.70;;;;;;;8.12;96.41;93104.46;1804500;79;21488;-75
2021/05/31 00:45:36;;;;;;;1.50;1.40;;;;;;;8.14;96.16;93098.09;1803775;79;21522;-76
2021/05/31 00:48:03;;;;;;;1.72;1.62;;;;;;;8.13;96.07;93100.03;1804435;79;21073;-76
2021/05/31 00:50:30;;;;;;;1.70;1.60;;;;;;;8.14;96.04;93100.80;1805821;77;21100;-77
2021/05/31 00:52:57;;;;;;;1.62;1.52;;;;;;;8.16;95.96;93097.11;1808460;79;21041;-77
2021/05/31 00:55:23;;;;;;;1.22;1.15;;;;;;;8.17;95.88;93100.03;1803488;79;21462;-77
2021/05/31 00:57:50;;;;;;;2.87;1.47;;;;;;;8.16;95.82;93099.81;1808354;78;21656;-76
2021/05/31 01:00:17;;;;;;;1.60;1.50;;;;;;;8.15;95.87;93099.62;1805605;79;20993;-76
2021/05/31 01:02:44;;;;;;;1.47;1.40;;;;;;;8.15;95.86;93094.22;1803379;79;20968;-75
2021/05/31 01:05:11;;;;;;;4.70;3.90;;;;;;;8.14;95.89;93099.45;1814935;76;21008;-75
2021/05/31 01:07:43;;;;;;;3.87;2.47;;;;;;;8.13;95.74;93098.67;1843890;77;21632;-75
2021/05/31 01:10:37;;;;;;;1.10;1.10;;;;;;;8.11;95.84;93100.22;1776316;79;21142;-77
2021/05/31 01:13:15;;;;;;;1.10;1.10;;;;;;;8.11;95.95;93102.34;1775315;80;21092;-76
2021/05/31 01:15:46;;;;;;;2.40;1.75;;;;;;;8.14;95.79;93096.73;1819675;77;21059;-75
2021/05/31 01:18:28;;;;;;;1.20;1.20;;;;;;;8.18;95.66;93099.63;1801122;76;21035;-76
2021/05/31 01:21:23;;;;;;;1.50;1.40;;;;;;;8.17;95.49;93089.97;1775206;80;21613;-77
2021/05/31 01:24:24;;;;;;;1.10;1.00;;;;;;;8.18;95.66;93096.16;1807625;77;21051;-76
2021/05/31 01:27:02;;;;;;;1.27;0.95;;;;;;;8.16;95.65;93096.55;1841538;77;21484;-78
2021/05/31 01:29:28;;;;;;;2.40;1.02;;;;;;;8.14;95.55;93100.80;1839201;77;21079;-75
2021/05/31 01:31:58;;;;;;;2.12;0.75;;;;;;;8.10;95.99;93091.32;1844028;77;21099;-77
2021/05/31 01:34:28;;;;;;;2.02;1.30;;;;;;;8.11;95.92;93096.16;1839131;77;21344;-77
2021/05/31 01:37:05;;;;;;;1.17;1.17;;;;;;;8.09;94.89;93098.48;1843257;77;21037;-79
2021/05/31 01:39:34;;;;;;;1.07;1.07;;;;;;;8.07;95.36;93101.56;1795441;75;21119;-76
2021/05/31 01:42:02;;;;;;;1.10;1.10;;;;;;;8.04;95.12;93106.39;1773906;80;21102;-76
2021/05/31 01:44:28;;;;;;;1.65;1.47;;;;;;;7.99;95.16;93104.08;1792423;78;21096;-77
2021/05/31 01:46:55;;;;;;;1.52;1.42;;;;;;;7.94;95.39;93107.95;1837821;77;21589;-76
2021/05/31 01:49:21;;;;;;;3.12;2.30;;;;;;;7.93;95.70;93112.38;1842992;77;21052;-77
2021/05/31 01:51:48;;;;;;;2.08;1.98;;;;;;;7.92;95.89;93107.55;1838222;77;21052;-78
2021/05/31 01:54:15;;;;;;;2.02;1.80;;;;;;;7.93;96.00;93109.09;1802789;77;21100;-76
2021/05/31 01:56:45;;;;;;;2.30;2.10;;;;;;;7.94;96.16;93105.24;1772882;77;20961;-76
2021/05/31 01:59:12;;;;;;;3.02;1.85;;;;;;;7.94;96.09;93118.78;1839126;77;21005;-77
2021/05/31 02:01:38;;;;;;;2.08;1.65;;;;;;;7.91;96.00;93112.78;1845077;77;21064;-77
2021/05/31 02:04:05;;;;;;;2.10;1.60;;;;;;;7.92;95.84;93115.67;1839022;77;21166;-75
2021/05/31 02:06:32;;;;;;;2.30;2.00;;;;;;;7.93;95.40;93107.73;1842902;77;21067;-77
2021/05/31 02:08:59;;;;;;;2.00;1.90;;;;;;;7.92;95.03;93117.02;1814824;77;21087;-78
2021/05/31 02:11:57;;;;;;;1.37;1.30;;;;;;;7.87;94.90;93113.94;1776190;80;21071;-76
2021/05/31 02:14:54;;;;;;;1.75;1.65;;;;;;;7.83;94.96;93115.87;1786923;79;21612;-76
2021/05/31 02:17:41;;;;;;;1.52;1.40;;;;;;;7.71;95.56;93121.05;1805271;75;21210;-78
2021/05/31 02:20:11;;;;;;;1.70;1.60;;;;;;;7.59;94.85;93119.47;1810284;78;21049;-75
2021/05/31 02:22:51;;;;;;;1.90;1.80;;;;;;;7.55;95.21;93124.10;1814153;78;21073;-77
2021/05/31 02:25:17;;;;;;;1.87;1.77;;;;;;;7.55;95.30;93120.05;1867351;74;21064;-77
2021/05/31 02:27:45;;;;;;;1.12;1.12;;;;;;;7.55;95.65;93118.69;1804810;76;21119;-76
2021/05/31 02:30:14;;;;;;;1.40;1.30;;;;;;;7.57;95.37;93125.86;1776260;80;21732;-77
2021/05/31 02:32:55;;;;;;;0.88;0.88;;;;;;;7.54;94.43;93119.27;1777943;79;21052;-76
2021/05/31 02:35:22;;;;;;;2.42;1.12;;;;;;;7.51;94.20;93122.73;1776907;80;21088;-78
2021/05/31 02:37:49;;;;;;;1.75;1.32;;;;;;;7.51;93.38;93115.20;1784741;79;21092;-79
2021/05/31 02:40:17;;;;;;;5.85;1.62;;;;;;;7.46;93.69;93116.36;1803317;79;21080;-79
2021/05/31 02:42:50;;;;;;;1.45;1.15;;;;;;;7.43;93.63;93119.82;1807965;78;21100;-77
2021/05/31 02:45:18;;;;;;;2.20;1.60;;;;;;;7.45;93.80;93131.05;1807364;79;21685;-77
2021/05/31 02:47:45;;;;;;;1.47;1.37;;;;;;;7.44;93.73;93126.77;1807507;78;21067;-75
2021/05/31 02:50:11;;;;;;;1.45;1.12;;;;;;;7.44;93.74;93123.30;1815810;78;21088;-78
2021/05/31 02:52:41;;;;;;;1.97;1.73;;;;;;;7.45;94.00;93125.64;1800586;79;21108;-76
2021/05/31 02:55:16;;;;;;;1.22;1.12;;;;;;;7.44;94.18;93119.24;1835618;76;21071;-75
2021/05/31 02:57:42;;;;;;;2.33;1.30;;;;;;;7.46;94.52;93121.77;1854718;76;21344;-77
2021/05/31 03:00:11;;;;;;;1.17;1.17;;;;;;;7.48;94.67;93123.50;1824632;78;21134;-76
2021/05/31 03:02:39;;;;;;;0.75;0.72;;;;;;;7.50;94.67;93121.20;1803057;79;21245;-80
2021/05/31 03:05:09;;;;;;;0.90;0.90;;;;;;;7.44;93.92;93126.00;1774957;80;21083;-79
2021/05/31 03:07:36;;;;;;;1.22;1.22;;;;;;;7.39;94.29;93127.16;1801051;79;21705;-80
2021/05/31 03:10:04;;;;;;;1.00;1.00;;;;;;;7.39;94.86;93129.86;1802052;79;21127;-77
2021/05/31 03:12:30;;;;;;;0.70;0.70;;;;;;;7.40;95.11;93142.80;1802534;79;21036;-80
2021/05/31 03:14:56;;;;;;;0.70;0.70;;;;;;;7.42;95.25;93135.09;1802934;79;21040;-76
2021/05/31 03:17:23;;;;;;;0.80;0.80;;;;;;;7.42;95.27;93141.86;1804190;78;20994;-77
2021/05/31 03:19:50;;;;;;;1.52;1.00;;;;;;;7.37;95.33;93130.84;1809210;79;21614;-76
2021/05/31 03:22:16;;;;;;;0.90;0.90;;;;;;;7.37;95.05;93134.09;1805296;79;21570;-76
2021/05/31 03:24:43;;;;;;;1.00;1.00;;;;;;;7.34;95.19;93141.05;1810711;78;20965;-77
2021/05/31 03:27:09;;;;;;;1.22;1.20;;;;;;;7.29;95.17;93129.23;1808020;79;21452;-77
2021/05/31 03:29:36;;;;;;;1.37;0.93;;;;;;;7.25;95.65;93136.56;1802946;78;21072;-80
2021/05/31 03:32:03;;;;;;;0.98;0.90;;;;;;;7.23;95.25;93135.60;1859067;76;21573;-77
2021/05/31 03:34:30;;;;;;;0.78;0.78;;;;;;;7.19;95.33;93135.39;1844430;76;21060;-80
2021/05/31 03:36:57;;;;;;;0.80;0.80;;;;;;;7.15;95.03;93131.33;1842648;77;21028;-79
2021/05/31 03:39:24;;;;;;;1.67;1.17;;;;;;;7.12;95.30;93129.38;1818845;77;21664;-80
2021/05/31 03:41:50;;;;;;;0.65;0.65;;;;;;;7.15;95.67;93132.67;1776505;79;21960;-77
2021/05/31 03:44:17;;;;;;;0.72;0.72;;;;;;;7.16;95.62;93134.80;1785416;79;21649;-77
2021/05/31 03:46:43;;;;;;;2.67;1.57;;;;;;;7.15;95.92;93129.20;1802520;79;21048;-77
2021/05/31 03:49:10;;;;;;;1.05;0.90;;;;;;;7.13;96.12;93132.84;1807666;76;21022;-80
2021/05/31 03:51:36;;;;;;;0.90;0.78;;;;;;;7.14;96.17;93133.04;1807680;79;21050;-78
2021/05/31 03:54:04;;;;;;;4.33;1.10;;;;;;;7.09;95.69;93132.83;1811942;76;21065;-79
2021/05/31 03:56:30;;;;;;;0.90;0.90;;;;;;;7.05;95.96;93139.58;1845046;77;21020;-78
2021/05/31 03:58:57;;;;;;;1.00;1.00;;;;;;;7.00;95.52;93140.52;1838081;76;22015;-77
2021/05/31 04:01:24;;;;;;;1.65;1.10;;;;;;;6.94;95.47;93136.04;1842862;77;21024;-78
2021/05/31 04:03:52;;;;;;;1.65;1.32;;;;;;;6.92;95.64;93130.80;1840980;76;21077;-79
2021/05/31 04:11:49;;;;;;;1.70;1.60;;;;;;;6.81;96.00;93127.48;1775578;79;21118;-77
2021/05/31 04:14:18;;;;;;;1.00;1.00;;;;;;;6.83;96.29;93133.09;1775645;80;20920;-76
2021/05/31 04:16:46;;;;;;;1.10;1.00;;;;;;;6.84;95.99;93136.75;1799793;79;21499;-77
2021/05/31 04:19:14;;;;;;;2.92;1.77;;;;;;;6.86;95.31;93137.74;1803847;79;20930;-79
2021/05/31 04:21:43;;;;;;;1.67;1.40;;;;;;;6.86;94.90;93141.22;1804092;79;20997;-77
2021/05/31 04:24:10;;;;;;;1.50;1.40;;;;;;;6.86;95.35;93131.75;1804068;79;21757;-76
2021/05/31 04:26:37;;;;;;;2.00;1.10;;;;;;;6.87;95.31;93134.65;1804032;79;21085;-76
2021/05/31 04:29:05;;;;;;;3.27;2.37;;;;;;;6.85;94.63;93136.97;1808755;78;21076;-78
2021/05/31 04:31:32;;;;;;;0.90;0.90;;;;;;;6.80;94.73;93130.55;1806284;79;20954;-80
2021/05/31 04:33:59;;;;;;;1.75;1.32;;;;;;;6.80;94.91;93134.03;1811006;78;21044;-76
2021/05/31 04:36:25;;;;;;;1.45;1.35;;;;;;;6.77;95.08;93138.86;1811766;78;21056;-78
2021/05/31 04:41:18;;;;;;;2.27;1.90;;;;;;;6.83;95.10;93131.73;1831561;77;21004;-76
2021/05/31 04:43:45;;;;;;;1.62;1.52;;;;;;;6.88;95.39;93132.14;1840202;77;21021;-76
2021/05/31 04:46:11;;;;;;;1.70;1.10;;;;;;;6.92;95.74;93130.25;1842298;77;21059;-77
2021/05/31 04:48:38;;;;;;;1.20;1.10;;;;;;;6.96;95.90;93131.05;1843312;77;21167;-77
2021/05/31 04:51:04;;;;;;;2.25;1.25;;;;;;;7.02;96.06;93134.14;1836236;78;20968;-76
2021/05/31 04:53:33;;;;;;;2.05;1.75;;;;;;;7.08;95.90;93130.52;1777281;79;21130;-78
2021/05/31 04:56:02;;;;;;;2.60;1.40;;;;;;;7.13;96.18;93129.56;1775772;79;21639;-77
2021/05/31 04:58:28;;;;;;;2.92;1.25;;;;;;;7.14;95.80;93127.05;1797393;78;21594;-76
2021/05/31 05:00:55;;;;;;;1.50;1.15;;;;;;;7.13;95.42;93134.97;1807880;79;21618;-78
2021/05/31 05:03:22;;;;;;;1.90;1.32;;;;;;;7.21;95.67;93135.20;1808529;76;21863;-76
2021/05/31 05:05:49;;;;;;;1.77;1.50;;;;;;;7.26;95.29;93136.78;1843841;77;22179;-78
2021/05/31 05:08:16;;;;;;;2.60;2.15;;;;;;;7.27;95.25;93142.38;1838938;77;21095;-78
2021/05/31 05:10:43;;;;;;;13.18;5.53;;;;;;;7.27;95.03;93138.33;1796360;78;21629;-79
2021/05/31 05:13:09;;;;;;;3.95;2.50;;;;;;;7.30;95.34;93132.93;1776728;80;21652;-78
2021/05/31 05:15:36;;;;;;;4.78;2.70;;;;;;;7.34;94.63;93141.05;1782581;79;20981;-78
2021/05/31 05:18:04;;;;;;;1.70;1.57;;;;;;;7.35;94.26;93143.95;1803850;79;21872;-79
2021/05/31 05:20:31;;;;;;;4.85;2.40;;;;;;;7.35;93.84;93148.01;1803500;79;21057;-79
2021/05/31 05:22:58;;;;;;;5.12;2.83;;;;;;;7.33;93.58;93142.77;1803421;79;21076;-77
2021/05/31 05:25:25;;;;;;;6.08;3.30;;;;;;;7.33;93.61;93138.13;1808262;76;21092;-80
2021/05/31 05:27:52;;;;;;;6.05;3.37;;;;;;;7.34;93.71;93142.41;1843449;77;21045;-78
2021/05/31 05:30:25;;;;;;;5.12;2.20;;;;;;;7.34;93.87;93139.70;1839722;77;21114;-80
2021/05/31 05:32:52;;;;;;;1.65;1.45;;;;;;;7.37;93.81;93140.86;1816827;77;21067;-80
2021/05/31 05:35:32;;;;;;;2.55;1.50;;;;;;;7.42;93.93;93140.50;1838783;77;21005;-79
2021/05/31 05:38:17;;;;;;;4.15;2.08;;;;;;;7.46;94.19;93143.99;1842961;77;21059;-79
2021/05/31 05:43:21;;;;;;;1.52;1.40;;;;;;;7.57;93.79;93144.03;1840282;77;21471;-80
2021/05/31 05:48:21;;;;;;;1.27;1.17;;;;;;;7.62;93.13;93143.06;1835774;77;21056;-80
2021/05/31 05:50:48;;;;;;;1.17;1.12;;;;;;;7.63;93.52;93141.91;1838456;77;21653;-77
2021/05/31 05:53:14;;;;;;;1.15;1.10;;;;;;;7.64;93.70;93135.35;1839425;77;20988;-78
2021/05/31 05:55:40;;;;;;;3.77;2.95;;;;;;;7.67;94.29;93140.56;1840300;77;21047;-79
2021/05/31 05:58:07;;;;;;;3.17;1.42;;;;;;;7.64;93.38;93142.12;1839065;77;21047;-79
2021/05/31 06:00:33;;;;;;;1.55;1.40;;;;;;;7.61;93.61;93152.93;1843003;77;21067;-77
2021/05/31 06:03:00;;;;;;;1.22;1.12;;;;;;;7.60;93.64;93152.16;1836849;77;21036;-77
2021/05/31 06:05:26;;;;;;;3.27;2.50;;;;;;;7.58;93.62;93147.70;1783597;78;21103;-79
2021/05/31 06:07:53;;;;;;;1.90;1.62;;;;;;;7.57;93.31;93154.27;1773682;80;21639;-76
2021/05/31 06:10:20;;;;;;;3.58;1.47;;;;;;;7.53;93.57;93152.14;1773603;79;21142;-78
2021/05/31 06:12:46;;;;;;;1.40;1.30;;;;;;;7.50;92.41;93146.91;1773087;79;21383;-76
2021/05/31 06:15:13;;;;;;;6.10;3.20;;;;;;;7.48;92.46;93149.20;1794852;79;21049;-79
2021/05/31 06:17:41;;;;;;;1.52;1.42;;;;;;;7.50;92.85;93151.54;1803188;79;20929;-80
2021/05/31 06:20:08;;;;;;;2.17;1.82;;;;;;;7.53;93.23;93153.49;1802508;79;21007;-81
2021/05/31 06:22:39;;;;;;;4.03;1.90;;;;;;;7.57;93.56;93147.51;1800290;79;21009;-79
2021/05/31 06:25:06;;;;;;;1.62;1.52;;;;;;;7.61;93.93;93141.52;1801642;79;21386;-81
2021/05/31 06:27:33;;;;;;;2.90;2.08;;;;;;;7.64;93.94;93148.88;1800230;79;21052;-78
2021/05/31 06:29:59;;;;;;;2.35;2.15;;;;;;;7.67;94.23;93140.00;1801977;79;21077;-81
2021/05/31 06:32:26;;;;;;;2.65;2.12;;;;;;;7.68;94.43;93140.77;1803243;79;21610;-81
2021/05/31 06:34:52;;;;;;;2.22;1.90;;;;;;;7.69;94.85;93151.20;1805750;78;21032;-78
2021/05/31 06:37:19;;;;;;;2.17;1.98;;;;;;;7.68;94.88;93148.31;1807057;79;21017;-78
2021/05/31 06:39:45;;;;;;;3.20;1.87;;;;;;;7.67;94.03;93143.27;1804205;76;21057;-78
2021/05/31 06:42:12;;;;;;;2.35;1.85;;;;;;;7.66;94.34;93142.50;1843258;77;21333;-79
2021/05/31 06:44:39;;;;;;;1.47;1.30;;;;;;;7.68;93.75;93136.72;1837874;77;21068;-78
2021/05/31 06:47:08;;;;;;;1.90;1.80;;;;;;;7.69;93.31;93140.38;1834030;78;21134;-78
2021/05/31 06:49:36;;;;;;;2.00;1.30;;;;;;;7.68;92.62;93138.84;1824791;78;21419;-79
2021/05/31 06:52:05;;;;;;;1.90;1.30;;;;;;;7.71;92.98;93142.69;1820860;78;21100;-79
2021/05/31 06:54:32;;;;;;;1.42;1.30;;;;;;;7.71;93.35;93147.55;1831627;78;21080;-79
2021/05/31 06:56:58;;;;;;;2.00;1.87;;;;;;;7.69;92.43;93144.44;1843648;77;21660;-79
2021/05/31 06:59:25;;;;;;;1.65;1.55;;;;;;;7.62;92.25;93157.18;1838978;77;21299;-77
2021/05/31 07:01:51;;;;;;;2.17;1.98;;;;;;;7.60;92.75;93162.19;1809216;78;21378;-79
2021/05/31 07:04:18;;;;;;;4.30;1.77;;;;;;;7.57;92.97;93155.63;1779066;79;21587;-78
2021/05/31 07:06:46;;;;;;;1.50;1.40;;;;;;;7.55;93.25;93159.28;1800697;79;21491;-79
2021/05/31 07:09:13;;;;;;;5.08;2.10;;;;;;;7.52;92.96;93162.19;1836990;77;21132;-77
2021/05/31 07:11:45;;;;;;;3.37;2.70;;;;;;;7.45;92.78;93164.86;1840829;77;21055;-77
2021/05/31 07:14:12;;;;;;;3.98;2.50;;;;;;;7.41;92.57;93178.96;1840734;75;21016;-77
2021/05/31 07:16:40;;;;;;;2.75;2.20;;;;;;;7.36;92.38;93171.77;1819448;77;21095;-84
2021/05/31 07:19:06;;;;;;;3.05;2.58;;;;;;;7.28;91.92;93170.39;1728966;79;21107;-81
2021/05/31 07:21:33;;;;;;;3.12;2.30;;;;;;;7.20;92.39;93184.27;1802503;79;21072;-81
2021/05/31 07:24:00;;;;;;;4.85;2.42;;;;;;;7.13;92.50;93176.11;1801858;79;21661;-78
2021/05/31 07:26:26;;;;;;;4.17;2.60;;;;;;;7.10;92.05;93174.93;1805829;75;21648;-80
2021/05/31 07:28:52;;;;;;;2.22;2.02;;;;;;;7.12;92.10;93182.10;1805700;79;21134;-79
2021/05/31 07:31:19;;;;;;;3.35;2.35;;;;;;;7.15;92.39;93181.35;1803485;79;21690;-78
2021/05/31 07:33:45;;;;;;;2.65;2.35;;;;;;;7.25;93.24;93174.42;1808937;79;21064;-78
2021/05/31 07:36:15;;;;;;;1.92;1.82;;;;;;;7.30;93.02;93184.31;1803709;79;21093;-81
2021/05/31 07:38:41;;;;;;;2.30;2.10;;;;;;;7.30;92.40;93180.27;1800519;78;21008;-81
2021/05/31 07:44:09;;;;;;;4.87;3.20;;;;;;;7.36;93.01;93170.42;1793246;79;28022;-76
2021/05/31 07:46:35;;;;;;;3.37;3.08;;;;;;;7.39;93.58;93176.42;1777652;79;21111;-77
2021/05/31 07:49:03;;;;;;;4.30;3.40;;;;;;;7.44;92.96;93170.64;1809761;78;21579;-83
2021/05/31 07:51:31;;;;;;;3.17;2.87;;;;;;;7.52;93.72;93178.98;1800109;78;21107;-76
2021/05/31 07:53:59;;;;;;;5.40;3.65;;;;;;;7.54;93.09;93178.03;1769672;80;21082;-76
2021/05/31 07:56:27;;;;;;;4.15;3.75;;;;;;;7.56;92.89;93177.09;1791093;80;21086;-77
2021/05/31 07:58:56;;;;;;;3.50;2.47;;;;;;;7.57;93.31;93173.22;1790408;80;21105;-80
2021/05/31 08:01:23;;;;;;;4.78;3.70;;;;;;;7.60;93.18;93184.63;1773198;79;21626;-78
2021/05/31 08:03:51;;;;;;;4.33;3.92;;;;;;;7.55;91.73;93178.98;1818255;78;20901;-79
2021/05/31 08:06:17;;;;;;;4.47;3.02;;;;;;;7.57;92.41;93179.20;1828499;77;20986;-78
2021/05/31 08:08:44;;;;;;;2.77;2.52;;;;;;;7.64;92.48;93188.70;1860567;77;21074;-79
2021/05/31 08:11:11;;;;;;;5.90;4.25;;;;;;;7.64;91.73;93186.00;1798222;78;20997;-79
2021/05/31 08:13:39;;;;;;;5.58;4.30;;;;;;;7.64;92.08;93190.06;1861487;76;21074;-78
2021/05/31 08:16:07;;;;;;;5.60;3.60;;;;;;;7.69;92.65;93190.45;1860287;76;21063;-78
2021/05/31 08:18:35;;;;;;;3.45;3.22;;;;;;;7.79;93.11;93201.13;1822927;76;21054;-80
2021/05/31 08:21:02;;;;;;;6.65;4.58;;;;;;;7.86;93.07;93197.64;1857067;77;21870;-83
2021/05/31 08:23:29;;;;;;;5.15;4.10;;;;;;;7.94;92.43;93191.88;1842994;77;21099;-81
2021/05/31 08:25:55;;;;;;;6.17;4.05;;;;;;;7.99;89.46;93201.55;1752236;77;21798;-79
2021/05/31 08:28:22;;;;;;;7.53;5.45;;;;;;;7.97;86.09;93193.83;1789987;79;21091;-80
2021/05/31 08:30:48;;;;;;;5.97;4.03;;;;;;;7.97;86.51;93197.09;1803775;78;21538;-78
2021/05/31 08:33:15;;;;;;;5.00;3.90;;;;;;;7.97;85.13;93196.53;1772041;80;21060;-78
2021/05/31 08:35:43;;;;;;;5.85;4.37;;;;;;;7.97;85.58;93198.44;1803459;79;21079;-79
2021/05/31 08:38:10;;;;;;;6.72;4.65;;;;;;;7.98;85.41;93208.91;1772388;80;21040;-77
2021/05/31 08:40:37;;;;;;;4.45;3.60;;;;;;;7.97;83.58;93194.37;1804729;79;21083;-77
2021/05/31 08:43:04;;;;;;;4.25;3.50;;;;;;;7.95;84.55;93204.25;1772822;80;21013;-77
2021/05/31 08:45:31;;;;;;;7.22;3.98;;;;;;;7.92;83.40;93195.54;1805041;79;20953;-77
2021/05/31 08:47:59;;;;;;;5.50;4.58;;;;;;;7.90;84.53;93188.95;1772761;80;21080;-77
2021/05/31 08:50:29;;;;;;;4.65;4.08;;;;;;;7.94;85.00;93199.23;1805704;79;21645;-79
2021/05/31 08:52:55;;;;;;;5.00;4.60;;;;;;;7.96;85.08;93191.48;1772249;80;21119;-79
2021/05/31 08:55:25;;;;;;;7.15;5.00;;;;;;;7.94;85.97;93191.11;1810934;79;21083;-78
2021/05/31 08:57:51;;;;;;;8.50;5.72;;;;;;;7.94;86.65;93190.53;1783883;80;21122;-79
2021/05/31 09:00:24;;;;;;;6.80;5.55;;;;;;;8.00;87.35;93194.39;1815326;79;21613;-79
2021/05/31 09:02:51;;;;;;;5.92;5.28;;;;;;;8.06;88.02;93194.80;1782240;80;21118;-78
2021/05/31 09:05:32;;;;;;;8.10;6.53;;;;;;;8.14;88.41;93195.59;1788073;80;21094;-79
2021/05/31 09:08:11;;;;;;;5.20;4.10;;;;;;;8.18;86.95;93196.37;1820571;78;21110;-82
2021/05/31 09:10:58;;;;;;;8.68;5.37;;;;;;;8.18;84.65;93196.37;1842843;77;21136;-81
2021/05/31 09:13:40;;;;;;;9.08;5.25;;;;;;;8.18;84.17;93201.20;1834517;77;21091;-77
2021/05/31 09:16:20;;;;;;;6.00;4.30;;;;;;;8.13;84.02;93197.53;1860773;75;21231;-79
2021/05/31 09:18:56;;;;;;;5.10;3.95;;;;;;;8.14;84.29;93195.59;1894005;75;21113;-78
2021/05/31 09:21:34;;;;;;;5.80;4.70;;;;;;;8.16;84.43;93192.70;1866947;76;21609;-81
2021/05/31 09:24:09;;;;;;;4.75;4.35;;;;;;;8.21;84.70;93193.66;1779687;76;21072;-77
2021/05/31 09:26:51;;;;;;;11.50;5.25;;;;;;;8.32;83.94;93196.39;1877002;76;21076;-79
2021/05/31 09:29:19;;;;;;;5.33;4.92;;;;;;;8.34;83.44;93189.22;1847976;76;21809;-78
2021/05/31 09:31:58;;;;;;;5.72;4.33;;;;;;;8.39;85.12;93186.95;1855315;77;21054;-78
2021/05/31 09:34:25;;;;;;;5.00;4.50;;;;;;;8.49;84.97;93185.38;1845848;76;21080;-80
2021/05/31 09:36:58;;;;;;;6.22;4.05;;;;;;;8.56;84.58;93196.81;1854979;75;21064;-78
2021/05/31 09:39:37;;;;;;;8.63;4.37;;;;;;;8.59;83.58;93190.62;1794439;77;21147;-77
2021/05/31 09:42:16;;;;;;;9.25;5.03;;;;;;;8.56;84.01;93197.58;1839906;77;21094;-77
2021/05/31 09:44:45;;;;;;;6.65;5.60;;;;;;;8.56;85.38;93196.23;1857518;76;21656;-78
2021/05/31 09:47:12;;;;;;;8.30;5.92;;;;;;;8.61;85.72;93201.25;1792247;77;21081;-77
2021/05/31 09:49:39;;;;;;;7.75;4.85;;;;;;;8.64;85.70;93194.29;1830654;76;21227;-79
2021/05/31 09:52:10;;;;;;;4.80;4.37;;;;;;;8.66;84.18;93194.10;1849193;76;21043;-78
2021/05/31 09:54:41;;;;;;;5.50;3.80;;;;;;;8.67;82.75;93197.59;1842253;76;21085;-78
2021/05/31 09:57:10;;;;;;;6.80;4.62;;;;;;;8.65;81.82;93202.61;1857913;76;21723;-78
2021/05/31 09:59:37;;;;;;;4.55;4.15;;;;;;;8.65;82.02;93202.61;1823684;77;21057;-78
2021/05/31 10:02:05;;;;;;;7.53;4.80;;;;;;;8.71;82.83;93199.71;1762828;78;21108;-78
2021/05/31 10:04:45;;;;;;;5.45;4.83;;;;;;;8.79;82.97;93201.25;1799834;77;21645;-79
2021/05/31 10:09:39;;;;;;;8.85;4.60;;;;;;;9.01;83.83;93196.58;1816263;78;21075;-78
2021/05/31 10:12:08;;;;;;;5.72;4.58;;;;;;;9.13;83.41;93194.80;1787195;78;21664;-77
2021/05/31 10:14:36;;;;;;;8.03;4.75;;;;;;;9.21;81.72;93187.42;1785589;80;21063;-78
2021/05/31 10:17:04;;;;;;;5.33;4.20;;;;;;;9.29;81.55;93184.91;1817802;78;20920;-79
2021/05/31 10:19:31;;;;;;;8.63;5.53;;;;;;;9.33;78.83;93186.26;1784825;79;20957;-76
2021/05/31 10:21:58;;;;;;;10.58;5.42;;;;;;;9.27;78.38;93182.39;1818191;78;21024;-77
2021/05/31 10:24:24;;;;;;;6.95;4.70;;;;;;;9.23;78.91;93183.16;1785339;80;21060;-77
2021/05/31 10:26:50;;;;;;;4.55;4.15;;;;;;;9.22;80.00;93188.41;1818643;78;20996;-76
2021/05/31 10:29:17;;;;;;;4.33;3.92;;;;;;;9.24;79.97;93188.77;1786021;78;21051;-77
2021/05/31 10:31:44;;;;;;;28.70;12.35;;;;;;;9.20;80.53;93193.44;1816670;78;21389;-78
2021/05/31 10:34:22;;;;;;;8.08;5.12;;;;;;;9.15;79.63;93180.28;1808981;77;21046;-77
2021/05/31 10:36:51;;;;;;;7.85;4.58;;;;;;;9.18;79.29;93183.58;1848952;76;21727;-77
2021/05/31 10:42:07;;;;;;;5.08;3.77;;;;;;;9.33;80.36;93168.62;1817494;78;20968;-77
2021/05/31 10:44:33;;;;;;;6.50;4.12;;;;;;;9.37;77.38;93168.79;1817237;78;21356;-78
2021/05/31 10:47:17;;;;;;;4.03;3.58;;;;;;;9.41;78.69;93165.48;1784990;80;21590;-78
2021/05/31 10:49:41;;;;;;;6.58;4.03;;;;;;;9.43;76.83;93163.13;1816857;78;21043;-76
2021/05/31 10:52:18;;;;;;;4.45;4.00;;;;;;;9.44;78.13;93164.70;1785155;78;21108;-77
2021/05/31 10:54:44;;;;;;;4.42;4.00;;;;;;;9.48;78.05;93161.38;1817992;78;21581;-79
2021/05/31 10:57:11;;;;;;;4.67;4.00;;;;;;;9.51;78.35;93167.17;1785111;80;21082;-79
2021/05/31 10:59:50;;;;;;;4.70;3.55;;;;;;;9.49;76.31;93167.58;1816669;78;21641;-79
2021/05/31 11:02:25;;;;;;;3.67;3.30;;;;;;;9.42;76.28;93168.38;1785417;78;21716;-78
2021/05/31 11:04:52;;;;;;;6.80;5.53;;;;;;;9.35;76.12;93178.48;1816659;78;21668;-77
2021/05/31 11:07:26;;;;;;;11.18;5.92;;;;;;;9.26;76.78;93180.84;1784744;80;21095;-78
2021/05/31 11:09:54;;;;;;;5.05;3.77;;;;;;;9.18;76.35;93184.16;1816890;78;21091;-77
2021/05/31 11:12:30;;;;;;;4.22;3.55;;;;;;;9.05;76.75;93190.56;1762652;80;21107;-79
2021/05/31 11:15:14;;;;;;;4.17;3.22;;;;;;;8.90;76.97;93195.23;1817209;78;22119;-77
2021/05/31 11:18:09;;;;;;;5.50;2.85;;;;;;;8.64;76.86;93204.55;1786357;80;20997;-76
2021/05/31 11:20:40;;;;;;;3.50;2.47;;;;;;;8.31;77.17;93191.34;1794145;79;21601;-76
2021/05/31 11:23:07;;;;;;;6.62;3.75;;;;;;;8.07;78.44;93196.93;1738517;80;21139;-77
2021/05/31 11:25:33;;;;;;;2.67;2.42;;;;;;;7.90;78.86;93203.84;1753627;80;21079;-75
2021/05/31 11:28:04;;;;;;;2.60;2.40;;;;;;;7.79;80.18;93195.71;1749372;81;21656;-77
2021/05/31 11:30:33;;;;;;;2.52;2.33;;;;;;;7.74;80.42;93196.83;1747057;80;21031;-76
2021/05/31 11:33:03;;;;;;;4.25;2.35;;;;;;;7.72;80.76;93189.69;1773750;80;21079;-78
2021/05/31 11:35:30;;;;;;;3.67;2.70;;;;;;;7.77;81.26;93190.66;1716035;83;21126;-78
2021/05/31 11:37:58;;;;;;;6.30;2.40;;;;;;;7.87;80.83;93195.16;1691549;83;21591;-76
2021/05/31 11:40:36;;;;;;;2.70;2.50;;;;;;;7.94;80.58;93180.28;1695342;84;21010;-77
2021/05/31 11:43:05;;;;;;;4.10;3.12;;;;;;;8.05;82.30;93190.55;1714340;83;21033;-76
2021/05/31 11:45:35;;;;;;;3.15;2.70;;;;;;;8.20;81.38;93195.42;1729683;82;21073;-76
2021/05/31 11:48:09;;;;;;;9.18;3.05;;;;;;;8.31;82.20;93188.63;1715265;82;21111;-76
2021/05/31 11:50:39;;;;;;;7.37;3.33;;;;;;;8.42;83.02;93178.02;1729435;83;21579;-75
2021/05/31 11:53:04;;;;;;;4.60;3.77;;;;;;;8.53;83.42;93175.31;1718082;82;21080;-78
2021/05/31 11:55:32;;;;;;;4.08;3.30;;;;;;;8.64;85.09;93171.25;1717173;83;21040;-77
2021/05/31 11:57:59;;;;;;;3.87;3.05;;;;;;;8.74;85.82;93168.53;1730287;82;21657;-78
2021/05/31 12:00:28;;;;;;;3.83;3.12;;;;;;;8.88;84.96;93167.75;1748441;82;21103;-77
2021/05/31 12:02:55;;;;;;;4.20;3.30;;;;;;;9.03;85.74;93173.13;1745391;82;21048;-78
2021/05/31 12:05:35;;;;;;;4.22;3.05;;;;;;;9.18;84.63;93167.30;1748640;82;21620;-77
2021/05/31 12:08:09;;;;;;;5.80;4.58;;;;;;;9.31;83.79;93160.08;1719795;82;21641;-79
2021/05/31 12:10:39;;;;;;;7.42;3.30;;;;;;;9.46;83.71;93162.34;1725999;81;21079;-78
2021/05/31 12:13:07;;;;;;;4.92;3.90;;;;;;;9.56;83.36;93155.34;1730785;82;21099;-79